Larkspur, CO

9:04 PM MST on December 18, 2014 (GMT -0700)
Bernhardt's Barnyard, Spruce Mtn Rd. | Change Station
CLOSE
Current Station
Personal Weather Station
Location: Larkspur, CO
Elevation: 6776 ft
Nearby Weather Stations

Elev 6776 ft 39.21 °N, 104.88 °W | Updated 3 minutes ago

Overcast
Overcast
29.5 °F
Feels Like 24 °F
N
5.4
Wind Variable Wind from SSE
Gusts 6.9 mph

Today
High -- | Low -- °F
--% Chance of Precip.
Yesterday
High -- | Low -- °F
Precip. -- in
7:13 AM 4:38 PM
Waning Crescent, 10% visible
Pressure 30.07 in
Visibility 10.0 miles
Clouds Scattered Clouds 1100 ft
Scattered Clouds 4700 ft
Mostly Cloudy 9000 ft
Windchill 24 °F
Dew Point 28 °F
Humidity 94%
Rainfall 0.00 in
Snow Depth Not available.
UV 0 out of 12
Pollen .10 out of 12
Air Quality Not available.
Flu Activity Not available.
METAR KMNH 190354Z AUTO 22007KT 10SM SCT011 SCT047 BKN090 M02/M03 A3007 RMK AO2

More Conditions Fewer Conditions

Pressure 30.07 in
Visibility 10.0 miles
Clouds Scattered Clouds 1100 ft
Scattered Clouds 4700 ft
Mostly Cloudy 9000 ft
Windchill 24 °F
Dew Point 28 °F
Humidity 94%
Rainfall 0.00 in
Snow Depth Not available.
UV 0 out of 12
Pollen .10 out of 12
Air Quality Not available.
Flu Activity Not available.
METAR KMNH 190354Z AUTO 22007KT 10SM SCT011 SCT047 BKN090 M02/M03 A3007 RMK AO2

More Conditions Fewer Conditions

Nowcast | as of 7:26 PM MST on December 18, 2014

A few light snow showers will move east across the southern foothills of Douglas County and east across the Palmer Divide through 9 PM...mainly south of Castle Rock. Snow accumulations will mainly be on grassy areas with up to a tenth of an inch accumulation. Roadways will likely stay wet.

×

10-Day Weather Forecast

Almanac

Astronomy

Dec. 18, 2014 Rise Set
Actual Time
Civil Twilight
Nautical Twilight
Astronomical Twilight
Moon
Length of Visible Light
Length of Day
Tomorrow will be .
, % of the Moon is Illuminated

Today's Extremes

State Highs State Lows

Community

WunderPhotos

Upload Photos

1,778,989 photos uploaded!

WunderBlogs® & News

Nearby

Air Quality

  Air Quality AQ Index Pollutant
Not available.

Snow Depth

Station Depth Elevation

Earthquake Activity

City Distance Mag. Time & Date
Minimum magnitude displayed is 2.5.

Coastal Water Temperatures

Place Temperature

Nearby Weather Stations